Flight Track Log - Related Links

Times and Time Zones

All times are in EDT time to prevent confusion due to time zone crossing. See the JBU464 flight status page for this flight to view local times or setup timezone preferences in your user account.


Time Position Orientation Groundspeed Altitude Reporting Facility
EDT Latitude Longitude Course Direction KTS MPH feet Rate Location/Type
Fri 07:33:58 AM 26.6928 -81.7181 344° North 273 314 6,400  Level Miami Center
Fri 07:34:58 AM 26.7697 -81.7261 355° North 280 322 9,200 2,250 Climbing Miami Center
Fri 07:35:00 AM 27.0313 -81.7392 340° North  Level FlightAware Approximate
Fri 07:35:58 AM 26.8531 -81.7317 357° North 286 329 10,900  Level Miami Center
Fri 07:36:00 AM 27.1500 -81.7833 343° North  Level FlightAware Approximate
Fri 07:36:58 AM 26.9531 -81.7406 355° North 320 368 11,800  Level Miami Center
Fri 07:37:00 AM 27.2695 -81.8245 340° North  Level FlightAware Approximate
Fri 07:37:58 AM 27.0650 -81.7594 351° North 366 421 13,500  Level Miami Center
Fri 07:38:00 AM 27.3883 -81.8683 344° North  Level FlightAware Approximate
Fri 07:38:58 AM 27.1744 -81.7967 343° North 395 455 16,400  Level Miami Center
Fri 07:39:00 AM 27.5082 -81.9083 344° North  Level FlightAware Approximate
Fri 07:39:58 AM 27.2939 -81.7808 North 390 449 18,100  Level Miami Center
Fri 07:40:58 AM 27.4100 -81.7411 17° North 415 478 19,200 1,150 Climbing Miami Center
Fri 07:41:58 AM 27.5306 -81.6972 18° North 421 484 20,400 1,200 Climbing Miami Center
Fri 07:42:58 AM 27.6403 -81.6572 18° North 448 516 21,600 1,100 Climbing Miami Center
Fri 07:43:58 AM 27.7669 -81.6133 17° North 465 535 22,600 1,000 Climbing Miami Center
Fri 07:44:58 AM 27.8936 -81.5742 15° North 473 544 23,600 850 Climbing Miami Center
Fri 07:45:58 AM 28.0272 -81.5725 North 473 544 24,300 950 Climbing Miami Center
Fri 07:46:58 AM 28.1586 -81.5711 North 473 544 25,500 1,204 Climbing Miami Center
Fri 07:50:57 AM 28.6856 -81.5556 North 456 525 30,300 1,204 Climbing Jacksonville Center
Fri 07:51:57 AM 28.8108 -81.5539 North 456 525 31,500 1,300 Climbing Jacksonville Center
Fri 07:52:57 AM 28.9339 -81.5522 North 456 525 32,900 1,450 Climbing Jacksonville Center
Fri 07:53:57 AM 29.0569 -81.5481 North 446 513 34,400 1,050 Climbing Jacksonville Center
Fri 07:54:57 AM 29.1781 -81.5442 North 434 499 35,000 300 Climbing Jacksonville Center
Fri 07:55:57 AM 29.3033 -81.5422 North 405 466 35,000  Level Jacksonville Center
Fri 07:56:57 AM 29.4242 -81.5383 North 405 466 35,000  Level Jacksonville Center
Fri 07:57:57 AM 29.5433 -81.5342 North 421 484 35,000  Level Jacksonville Center
Fri 07:58:57 AM 29.6600 -81.5303 North 421 484 35,000  Level Jacksonville Center
Fri 07:59:57 AM 29.7792 -81.5286 North 421 484 35,000  Level Jacksonville Center
Fri 08:00:57 AM 29.9000 -81.5244 North 421 484 35,000  Level Jacksonville Center
Fri 08:01:57 AM 30.0169 -81.5206 North 421 484 35,000  Level Jacksonville Center
Fri 08:02:57 AM 30.1339 -81.5164 North 421 484 35,000  Level Jacksonville Center
Fri 08:03:57 AM 30.2425 -81.5147 North 426 490 35,000  Level Jacksonville Center
Fri 08:04:57 AM 30.3633 -81.5083 North 426 490 35,000  Level Jacksonville Center
Fri 08:05:57 AM 30.4803 -81.4994 North 426 490 35,000  Level Jacksonville Center
Fri 08:06:57 AM 30.6011 -81.4903 North 421 484 35,000  Level Jacksonville Center
Fri 08:07:57 AM 30.7222 -81.4789 North 421 484 35,000  Level Jacksonville Center
Fri 08:08:57 AM 30.8411 -81.4722 North 421 484 35,000  Level Jacksonville Center
Fri 08:09:57 AM 30.9622 -81.4631 North 421 484 35,000  Level Jacksonville Center
Fri 08:10:57 AM 31.0831 -81.4517 North 426 490 35,000  Level Jacksonville Center
Fri 08:11:57 AM 31.2042 -81.4425 North 426 490 35,000  Level Jacksonville Center
Fri 08:12:57 AM 31.3250 -81.4189 North 431 496 35,000  Level Jacksonville Center
Fri 08:13:57 AM 31.4347 -81.3367 33° Northeast 430 495 35,000  Level Jacksonville Center
Fri 08:14:57 AM 31.5525 -81.2422 34° Northeast 464 534 35,000  Level Jacksonville Center
Fri 08:15:57 AM 31.6517 -81.1647 34° Northeast 471 542 35,000  Level Jacksonville Center
Fri 08:16:57 AM 31.7672 -81.0697 35° Northeast 464 534 35,000  Level Jacksonville Center
Fri 08:17:57 AM 31.8808 -80.9842 33° Northeast 469 540 35,000  Level Jacksonville Center
Fri 08:18:57 AM 31.9797 -80.9064 34° Northeast 474 545 35,000  Level Jacksonville Center
Fri 08:19:57 AM 32.0994 -80.8106 34° Northeast 474 545 35,000 -50 Level Jacksonville Center
Fri 08:20:57 AM 32.1981 -80.7297 35° Northeast 474 545 34,900 -50 Descending Jacksonville Center
Fri 08:21:57 AM 32.3094 -80.6411 34° Northeast 474 545 34,900 50 Level Jacksonville Center
Fri 08:22:57 AM 32.4206 -80.5522 34° Northeast 474 545 35,000  Climbing Jacksonville Center
Fri 08:23:57 AM 32.5314 -80.4631 34° Northeast 474 545 34,900 -50 Descending Jacksonville Center
Fri 08:24:57 AM 32.6403 -80.3739 35° Northeast 474 545 34,900  Level Jacksonville Center
Fri 08:25:57 AM 32.7472 -80.2869 34° Northeast 474 545 34,900  Level Jacksonville Center
Fri 08:26:57 AM 32.8581 -80.1947 35° Northeast 474 545 34,900  Level Jacksonville Center
Fri 08:27:57 AM 32.9667 -80.1022 36° Northeast 484 557 34,900 50 Level Jacksonville Center
Fri 08:28:57 AM 33.0814 -80.0119 33° Northeast 484 557 35,000 50 Climbing Jacksonville Center
Fri 08:29:57 AM 33.1881 -79.9267 34° Northeast 479 551 35,000  Level Jacksonville Center
Fri 08:30:57 AM 33.3006 -79.8333 35° Northeast 479 551 35,000  Level Jacksonville Center
Fri 08:31:57 AM 33.4089 -79.7450 34° Northeast 479 551 35,000 -50 Level Jacksonville Center
Fri 08:32:57 AM 33.5153 -79.6589 34° Northeast 474 545 34,900  Descending Jacksonville Center
Fri 08:33:57 AM 33.6214 -79.5678 36° Northeast 474 545 35,000 50 Climbing Jacksonville Center
Fri 08:34:57 AM 33.7275 -79.4764 36° Northeast 469 540 35,000  Level Jacksonville Center
Fri 08:35:57 AM 33.8317 -79.3925 34° Northeast 469 540 35,000  Level Jacksonville Center
Fri 08:38:03 AM 34.0675 -79.1967 35° Northeast 465 535 35,000  Level Washington Center
Fri 08:39:03 AM 34.1789 -79.1011 35° Northeast 470 541 35,000  Level Washington Center
Fri 08:40:04 AM 34.2878 -79.0103 35° Northeast 482 555 35,000 -50 Level Washington Center
Fri 08:41:02 AM 34.4028 -78.9269 31° Northeast 482 555 34,900 -50 Descending Washington Center
Fri 08:42:03 AM 34.5158 -78.8408 32° Northeast 477 549 34,900 49 Level Washington Center
Fri 08:43:04 AM 34.6267 -78.7544 33° Northeast 477 549 35,000 50 Climbing Washington Center
Fri 08:44:02 AM 34.7394 -78.6653 33° Northeast 477 549 35,000  Level Washington Center
Fri 08:45:03 AM 34.8522 -78.5786 32° Northeast 477 549 35,000  Level Washington Center
Fri 08:46:04 AM 34.9650 -78.4914 32° Northeast 477 549 35,000 -50 Level Washington Center
Fri 08:47:04 AM 35.0775 -78.4067 32° Northeast 472 543 34,900  Descending Washington Center
Fri 08:48:02 AM 35.1925 -78.3139 33° Northeast 478 550 35,000 50 Climbing Washington Center
Fri 08:49:03 AM 35.3114 -78.2264 31° Northeast 483 556 35,000  Level Washington Center
Fri 08:50:03 AM 35.4258 -78.1358 33° Northeast 488 562 35,000  Level Washington Center
Fri 08:51:04 AM 35.5406 -78.0450 33° Northeast 488 562 35,000  Level Washington Center
Fri 08:52:04 AM 35.6569 -77.9567 32° Northeast 488 562 35,000  Level Washington Center
Fri 08:53:02 AM 35.7714 -77.8653 33° Northeast 488 562 35,000  Level Washington Center
Fri 08:54:02 AM 35.8878 -77.7764 32° Northeast 488 562 35,000  Level Washington Center
Fri 08:55:03 AM 36.0000 -77.6844 34° Northeast 488 562 35,000  Level Washington Center
Fri 08:56:03 AM 36.1103 -77.5844 36° Northeast 488 562 35,000  Level Washington Center
Fri 08:57:02 AM 36.2183 -77.4817 37° Northeast 488 562 35,000 -50 Level Washington Center
Fri 08:58:02 AM 36.3264 -77.3786 38° Northeast 488 562 34,900  Descending Washington Center
Fri 08:59:03 AM 36.4383 -77.2728 37° Northeast 494 568 35,000 49 Climbing Washington Center
Fri 09:00:04 AM 36.5506 -77.1667 37° Northeast 499 574 35,000  Level Washington Center
Fri 09:01:05 AM 36.6625 -77.0625 37° Northeast 504 580 35,000  Level Washington Center
Fri 09:02:02 AM 36.7806 -76.9508 37° Northeast 509 586 35,000  Level Washington Center
Fri 09:03:03 AM 36.8964 -76.8464 36° Northeast 509 586 35,000  Level Washington Center
Fri 09:04:03 AM 37.0122 -76.7442 35° Northeast 509 586 35,000  Level Washington Center
Fri 09:05:03 AM 37.1278 -76.6392 36° Northeast 509 586 35,000  Level Washington Center
Fri 09:06:01 AM 37.2331 -76.5414 36° Northeast 509 586 35,000  Level Washington Center
Fri 09:07:03 AM 37.3506 -76.4358 36° Northeast 509 586 35,000  Level Washington Center
Fri 09:08:03 AM 37.4681 -76.3272 36° Northeast 509 586 35,000  Level Washington Center
Fri 09:09:03 AM 37.5856 -76.2181 36° Northeast 514 592 35,000  Level Washington Center
Fri 09:10:04 AM 37.7194 -76.1036 34° Northeast 519 597 35,000  Level Washington Center
Fri 09:11:04 AM 37.8200 -76.0019 39° Northeast 519 597 35,000  Level Washington Center
Fri 09:12:02 AM 37.9392 -75.8892 37° Northeast 524 603 35,000  Level Washington Center
Fri 09:13:03 AM 38.0561 -75.7789 37° Northeast 524 603 35,000  Level Washington Center
Fri 09:14:04 AM 38.1836 -75.6817 31° Northeast 524 603 35,000  Level Washington Center
Fri 09:15:02 AM 38.3086 -75.5892 30° Northeast 524 603 35,000 -51 Level Washington Center
Fri 09:16:02 AM 38.4378 -75.4936 30° Northeast 524 603 34,900  Descending Washington Center
Fri 09:17:03 AM 38.5650 -75.3978 30° Northeast 529 609 35,000 49 Climbing Washington Center
Fri 09:18:04 AM 38.6961 -75.2992 30° Northeast 534 615 35,000  Level Washington Center
Fri 09:19:02 AM 38.8250 -75.2025 30° Northeast 534 615 35,000  Level Washington Center
Fri 09:20:03 AM 38.9539 -75.1031 31° Northeast 534 615 35,000  Level Washington Center
Fri 09:21:04 AM 39.0847 -75.0033 31° Northeast 534 615 35,000  Level Washington Center
Fri 09:22:05 AM 39.2156 -74.9006 31° Northeast 540 621 35,000  Level Washington Center
Fri 09:23:02 AM 39.3461 -74.7972 31° Northeast 540 621 35,000  Level Washington Center
Fri 09:24:03 AM 39.4789 -74.6936 31° Northeast 545 627 35,000  Level Washington Center
Fri 09:26:29 AM 39.8108 -74.4353 31° Northeast 560 644 35,000  Level New York Center
Fri 09:27:29 AM 39.9489 -74.3478 26° Northeast 553 636 35,000 -102 Level New York Center
Fri 09:28:27 AM 40.0992 -74.3392 North 536 617 34,800 -303 Descending New York Center
Fri 09:29:28 AM 40.2556 -74.3392 360° North 541 623 34,400 -639 Descending New York Center
Fri 09:30:29 AM 40.4119 -74.3392 360° North 547 629 33,500 -1,190 Descending New York Center
Fri 09:31:29 AM 40.5556 -74.2728 19° North 547 629 32,000 -1,563 Descending New York Center
Fri 09:32:28 AM 40.6472 -74.1244 51° Northeast 511 588 30,400 -1,731 Descending New York Center
Fri 09:34:50 AM 40.7739 -73.7144 68° East 492 566 26,200 -1,752 Descending Boston Center
Fri 09:35:50 AM 40.8236 -73.5481 68° East 492 566 24,500 -1,100 Descending Boston Center
Fri 09:36:50 AM 40.8853 -73.4008 61° Northeast 477 549 24,000 -300 Descending Boston Center
Fri 09:37:50 AM 40.9678 -73.2703 50° Northeast 461 531 23,900 -300 Descending Boston Center
Fri 09:38:50 AM 41.0394 -73.1281 56° Northeast 461 531 23,400 -450 Descending Boston Center
Fri 09:39:50 AM 41.1069 -72.9856 58° Northeast 461 531 23,000 -200 Descending Boston Center
Fri 09:40:50 AM 41.1742 -72.8428 58° Northeast 456 525 23,000  Level Boston Center
Fri 09:41:50 AM 41.2433 -72.6994 57° Northeast 456 525 23,000  Level Boston Center
Fri 09:42:50 AM 41.3083 -72.5700 56° Northeast 461 531 23,000 -150 Level Boston Center
Fri 09:43:50 AM 41.3750 -72.4208 59° Northeast 461 531 22,700 -700 Descending Boston Center
Fri 09:44:50 AM 41.4333 -72.2628 64° Northeast 440 506 21,600 -1,000 Descending Boston Center
Fri 09:45:50 AM 41.4892 -72.1131 63° Northeast 434 499 20,700 -950 Descending Boston Center
Fri 09:46:50 AM 41.5428 -71.9686 64° Northeast 429 494 19,700 -1,200 Descending Boston Center
Fri 09:47:50 AM 41.5983 -71.8294 62° Northeast 424 488 18,300 -1,500 Descending Boston Center
Fri 09:48:50 AM 41.6478 -71.6900 65° Northeast 424 488 16,700 -1,600 Descending Boston Center
Fri 09:49:50 AM 41.6989 -71.5531 63° Northeast 417 480 15,100 -1,400 Descending Boston Center
Fri 09:50:50 AM 41.7436 -71.4356 63° Northeast 397 457 13,900 -1,455 Descending Boston Center
Fri 09:52:02 AM 41.8044 -71.2619 65° Northeast 392 451 11,900 -1,318 Descending Boston Center
Fri 09:53:02 AM 41.8489 -71.1414 64° Northeast 365 420 11,000 -673 Descending Boston Center
Fri 09:53:40 AM 41.8833 -71.0667 58° Northeast 347 399 10,800 -606 Descending KA90
Fri 09:54:41 AM 41.9333 -70.9500 60° Northeast 344 396 10,000 -645 Descending KA90
Fri 09:55:41 AM 41.9667 -70.8500 66° East 316 364 9,500 -519 Descending KA90
Fri 09:56:02 AM 41.9847 -70.8342 33° Northeast 329 379 9,300 -593 Descending Boston Center
Fri 09:57:02 AM 42.0333 -70.7350 57° Northeast 316 364 8,700 -600 Descending Boston Center
Fri 09:58:02 AM 42.0903 -70.6494 48° Northeast 311 358 8,100 -750 Descending Boston Center
Fri 09:59:02 AM 42.1667 -70.5997 26° Northeast 299 344 7,200 -1,000 Descending Boston Center
Fri 10:00:02 AM 42.2478 -70.5889 North 291 335 6,100 -1,100 Descending Boston Center
Fri 10:01:02 AM 42.3253 -70.6119 348° North 277 319 5,000 -600 Descending Boston Center
Fri 10:02:02 AM 42.3986 -70.6322 348° North 271 312 4,900 -50 Descending Boston Center
Fri 10:03:02 AM 42.4633 -70.6531 347° North 250 288 4,900 -200 Level Boston Center
Fri 10:04:02 AM 42.4875 -70.7283 294° West 215 247 4,500 -353 Descending Boston Center
Fri 10:05:52 AM 42.5667 -70.8000 326° Northwest 233 268 3,900 -533 Descending KA90
Fri 10:06:51 AM 42.5833 -70.8500 294° West 202 232 3,000 -429 Descending KA90
Fri 10:07:58 AM 42.5500 -70.9167 236° Southwest 175 201 3,000 -47 Level KA90
Fri 10:08:59 AM 42.5167 -70.9333 200° South 170 196 2,900 -98 Descending KA90

Login

Don't have an account? Register now (free) for customized features, flight alerts, and more!